sensor_id;sensor_type;location;lat;lon;timestamp;P1;durP1;ratioP1;P2;durP2;ratioP2
5042;SDS011;2540;50.928;6.856;2022-08-21T00:02:18;7.90;;;4.03;;
5042;SDS011;2540;50.928;6.856;2022-08-21T00:04:44;16.93;;;5.40;;
5042;SDS011;2540;50.928;6.856;2022-08-21T00:07:09;8.37;;;4.70;;
5042;SDS011;2540;50.928;6.856;2022-08-21T00:09:35;10.13;;;4.40;;
5042;SDS011;2540;50.928;6.856;2022-08-21T00:12:00;12.10;;;4.27;;
5042;SDS011;2540;50.928;6.856;2022-08-21T00:14:25;10.03;;;4.30;;
5042;SDS011;2540;50.928;6.856;2022-08-21T00:16:51;8.63;;;4.60;;
5042;SDS011;2540;50.928;6.856;2022-08-21T00:19:16;8.43;;;4.67;;
5042;SDS011;2540;50.928;6.856;2022-08-21T00:21:41;9.83;;;5.50;;
5042;SDS011;2540;50.928;6.856;2022-08-21T00:24:06;14.80;;;5.83;;
5042;SDS011;2540;50.928;6.856;2022-08-21T00:26:31;8.23;;;5.13;;
5042;SDS011;2540;50.928;6.856;2022-08-21T00:28:57;15.00;;;5.40;;
5042;SDS011;2540;50.928;6.856;2022-08-21T00:31:22;10.23;;;5.60;;
5042;SDS011;2540;50.928;6.856;2022-08-21T00:33:47;14.60;;;5.20;;
5042;SDS011;2540;50.928;6.856;2022-08-21T00:36:12;9.33;;;4.93;;
5042;SDS011;2540;50.928;6.856;2022-08-21T00:38:38;6.63;;;5.27;;
5042;SDS011;2540;50.928;6.856;2022-08-21T00:41:03;14.00;;;5.77;;
5042;SDS011;2540;50.928;6.856;2022-08-21T00:43:32;8.77;;;4.40;;
5042;SDS011;2540;50.928;6.856;2022-08-21T00:45:57;7.63;;;4.50;;
5042;SDS011;2540;50.928;6.856;2022-08-21T00:48:24;12.27;;;5.77;;
5042;SDS011;2540;50.928;6.856;2022-08-21T00:51:11;6.20;;;4.87;;
5042;SDS011;2540;50.928;6.856;2022-08-21T00:53:39;11.90;;;5.37;;
5042;SDS011;2540;50.928;6.856;2022-08-21T00:56:05;11.77;;;4.90;;
5042;SDS011;2540;50.928;6.856;2022-08-21T00:58:32;6.90;;;5.13;;
5042;SDS011;2540;50.928;6.856;2022-08-21T01:01:00;7.60;;;4.60;;
5042;SDS011;2540;50.928;6.856;2022-08-21T01:03:26;12.37;;;4.47;;
5042;SDS011;2540;50.928;6.856;2022-08-21T01:05:52;8.53;;;5.60;;
5042;SDS011;2540;50.928;6.856;2022-08-21T01:08:17;8.50;;;4.33;;
5042;SDS011;2540;50.928;6.856;2022-08-21T01:10:43;10.00;;;4.33;;
5042;SDS011;2540;50.928;6.856;2022-08-21T01:13:09;12.50;;;5.17;;
5042;SDS011;2540;50.928;6.856;2022-08-21T01:15:36;7.70;;;4.80;;
5042;SDS011;2540;50.928;6.856;2022-08-21T01:18:02;9.77;;;5.33;;
5042;SDS011;2540;50.928;6.856;2022-08-21T01:20:28;7.43;;;4.70;;
5042;SDS011;2540;50.928;6.856;2022-08-21T01:22:53;10.90;;;5.60;;
5042;SDS011;2540;50.928;6.856;2022-08-21T01:25:19;11.17;;;5.00;;
5042;SDS011;2540;50.928;6.856;2022-08-21T01:27:47;14.30;;;5.80;;
5042;SDS011;2540;50.928;6.856;2022-08-21T01:30:20;13.20;;;5.60;;
5042;SDS011;2540;50.928;6.856;2022-08-21T01:32:46;10.03;;;5.80;;
5042;SDS011;2540;50.928;6.856;2022-08-21T01:35:12;12.47;;;6.50;;
5042;SDS011;2540;50.928;6.856;2022-08-21T01:37:38;11.73;;;5.87;;
5042;SDS011;2540;50.928;6.856;2022-08-21T01:40:04;9.53;;;5.63;;
5042;SDS011;2540;50.928;6.856;2022-08-21T01:42:30;14.57;;;6.20;;
5042;SDS011;2540;50.928;6.856;2022-08-21T01:44:55;9.70;;;6.13;;
5042;SDS011;2540;50.928;6.856;2022-08-21T01:47:21;7.87;;;4.77;;
5042;SDS011;2540;50.928;6.856;2022-08-21T01:49:47;12.90;;;5.77;;
5042;SDS011;2540;50.928;6.856;2022-08-21T01:52:12;9.37;;;5.30;;
5042;SDS011;2540;50.928;6.856;2022-08-21T01:54:38;10.87;;;5.37;;
5042;SDS011;2540;50.928;6.856;2022-08-21T01:57:04;13.13;;;5.27;;
5042;SDS011;2540;50.928;6.856;2022-08-21T01:59:29;12.73;;;4.53;;
5042;SDS011;2540;50.928;6.856;2022-08-21T02:01:54;11.07;;;5.03;;
5042;SDS011;2540;50.928;6.856;2022-08-21T02:04:20;8.77;;;4.60;;
5042;SDS011;2540;50.928;6.856;2022-08-21T02:06:45;16.57;;;5.40;;
5042;SDS011;2540;50.928;6.856;2022-08-21T02:09:11;9.80;;;5.53;;
5042;SDS011;2540;50.928;6.856;2022-08-21T02:11:37;9.80;;;5.50;;
5042;SDS011;2540;50.928;6.856;2022-08-21T02:14:05;10.60;;;5.13;;
5042;SDS011;2540;50.928;6.856;2022-08-21T02:16:30;10.97;;;4.63;;
5042;SDS011;2540;50.928;6.856;2022-08-21T02:18:55;14.93;;;5.80;;
5042;SDS011;2540;50.928;6.856;2022-08-21T02:21:21;9.77;;;5.50;;
5042;SDS011;2540;50.928;6.856;2022-08-21T02:23:46;8.37;;;4.73;;
5042;SDS011;2540;50.928;6.856;2022-08-21T02:26:12;18.37;;;5.80;;
5042;SDS011;2540;50.928;6.856;2022-08-21T02:28:37;10.77;;;4.90;;
5042;SDS011;2540;50.928;6.856;2022-08-21T02:31:03;13.17;;;5.00;;
5042;SDS011;2540;50.928;6.856;2022-08-21T02:33:29;10.07;;;5.13;;
5042;SDS011;2540;50.928;6.856;2022-08-21T02:35:54;9.70;;;5.27;;
5042;SDS011;2540;50.928;6.856;2022-08-21T02:38:22;6.40;;;4.43;;
5042;SDS011;2540;50.928;6.856;2022-08-21T02:40:48;12.03;;;5.80;;
5042;SDS011;2540;50.928;6.856;2022-08-21T02:43:13;8.67;;;4.63;;
5042;SDS011;2540;50.928;6.856;2022-08-21T02:45:39;11.40;;;4.80;;
5042;SDS011;2540;50.928;6.856;2022-08-21T02:48:06;9.70;;;5.10;;
5042;SDS011;2540;50.928;6.856;2022-08-21T02:50:33;10.87;;;5.23;;
5042;SDS011;2540;50.928;6.856;2022-08-21T02:52:59;9.60;;;4.90;;
5042;SDS011;2540;50.928;6.856;2022-08-21T02:55:26;8.47;;;4.50;;
5042;SDS011;2540;50.928;6.856;2022-08-21T02:57:52;10.63;;;5.53;;
5042;SDS011;2540;50.928;6.856;2022-08-21T03:00:18;17.87;;;6.67;;
5042;SDS011;2540;50.928;6.856;2022-08-21T03:02:44;7.10;;;4.50;;
5042;SDS011;2540;50.928;6.856;2022-08-21T03:05:11;11.33;;;4.90;;
5042;SDS011;2540;50.928;6.856;2022-08-21T03:07:37;8.20;;;4.70;;
5042;SDS011;2540;50.928;6.856;2022-08-21T03:10:04;8.60;;;4.63;;
5042;SDS011;2540;50.928;6.856;2022-08-21T03:12:29;14.50;;;5.37;;
5042;SDS011;2540;50.928;6.856;2022-08-21T03:14:54;15.00;;;5.20;;
5042;SDS011;2540;50.928;6.856;2022-08-21T03:17:20;13.63;;;4.30;;
5042;SDS011;2540;50.928;6.856;2022-08-21T03:19:45;6.70;;;3.93;;
5042;SDS011;2540;50.928;6.856;2022-08-21T03:22:10;10.47;;;4.83;;
5042;SDS011;2540;50.928;6.856;2022-08-21T03:24:35;11.30;;;3.80;;
5042;SDS011;2540;50.928;6.856;2022-08-21T03:27:00;8.77;;;5.20;;
5042;SDS011;2540;50.928;6.856;2022-08-21T03:29:26;11.13;;;4.80;;
5042;SDS011;2540;50.928;6.856;2022-08-21T03:31:51;8.93;;;4.53;;
5042;SDS011;2540;50.928;6.856;2022-08-21T03:34:18;8.13;;;4.50;;
5042;SDS011;2540;50.928;6.856;2022-08-21T03:36:44;16.23;;;4.07;;
5042;SDS011;2540;50.928;6.856;2022-08-21T03:39:09;8.87;;;4.13;;
5042;SDS011;2540;50.928;6.856;2022-08-21T03:41:34;9.03;;;5.23;;
5042;SDS011;2540;50.928;6.856;2022-08-21T03:43:59;9.27;;;4.23;;
5042;SDS011;2540;50.928;6.856;2022-08-21T03:46:24;5.00;;;3.90;;
5042;SDS011;2540;50.928;6.856;2022-08-21T03:48:50;10.20;;;4.60;;
5042;SDS011;2540;50.928;6.856;2022-08-21T03:51:16;13.87;;;4.77;;
5042;SDS011;2540;50.928;6.856;2022-08-21T03:53:42;10.30;;;4.27;;
5042;SDS011;2540;50.928;6.856;2022-08-21T03:56:07;7.07;;;4.23;;
5042;SDS011;2540;50.928;6.856;2022-08-21T03:58:32;6.60;;;4.00;;
5042;SDS011;2540;50.928;6.856;2022-08-21T04:01:00;14.30;;;4.47;;
5042;SDS011;2540;50.928;6.856;2022-08-21T04:03:26;11.40;;;4.03;;
5042;SDS011;2540;50.928;6.856;2022-08-21T04:05:51;10.03;;;4.20;;
5042;SDS011;2540;50.928;6.856;2022-08-21T04:08:17;7.20;;;4.17;;
5042;SDS011;2540;50.928;6.856;2022-08-21T04:10:43;13.30;;;4.33;;
5042;SDS011;2540;50.928;6.856;2022-08-21T04:13:09;6.77;;;3.83;;
5042;SDS011;2540;50.928;6.856;2022-08-21T04:15:35;6.97;;;4.13;;
5042;SDS011;2540;50.928;6.856;2022-08-21T04:18:00;5.97;;;3.73;;
5042;SDS011;2540;50.928;6.856;2022-08-21T04:20:26;8.60;;;4.03;;
5042;SDS011;2540;50.928;6.856;2022-08-21T04:22:51;8.97;;;3.93;;
5042;SDS011;2540;50.928;6.856;2022-08-21T04:25:17;6.43;;;3.90;;
5042;SDS011;2540;50.928;6.856;2022-08-21T04:27:43;7.90;;;4.30;;
5042;SDS011;2540;50.928;6.856;2022-08-21T04:30:10;9.73;;;4.30;;
5042;SDS011;2540;50.928;6.856;2022-08-21T04:32:36;5.20;;;3.67;;
5042;SDS011;2540;50.928;6.856;2022-08-21T04:35:03;9.07;;;4.00;;
5042;SDS011;2540;50.928;6.856;2022-08-21T04:37:29;9.07;;;4.00;;
5042;SDS011;2540;50.928;6.856;2022-08-21T04:39:54;11.43;;;4.97;;
5042;SDS011;2540;50.928;6.856;2022-08-21T04:42:22;7.67;;;4.20;;
5042;SDS011;2540;50.928;6.856;2022-08-21T04:44:48;10.03;;;4.40;;
5042;SDS011;2540;50.928;6.856;2022-08-21T04:47:14;8.63;;;3.63;;
5042;SDS011;2540;50.928;6.856;2022-08-21T04:49:39;8.70;;;4.27;;
5042;SDS011;2540;50.928;6.856;2022-08-21T04:52:04;11.73;;;4.77;;
5042;SDS011;2540;50.928;6.856;2022-08-21T04:54:30;10.27;;;4.63;;
5042;SDS011;2540;50.928;6.856;2022-08-21T04:57:02;10.50;;;3.80;;
5042;SDS011;2540;50.928;6.856;2022-08-21T04:59:31;9.83;;;4.90;;
5042;SDS011;2540;50.928;6.856;2022-08-21T05:01:57;14.43;;;4.30;;
5042;SDS011;2540;50.928;6.856;2022-08-21T05:04:25;8.30;;;4.10;;
5042;SDS011;2540;50.928;6.856;2022-08-21T05:06:51;6.00;;;3.83;;
5042;SDS011;2540;50.928;6.856;2022-08-21T05:09:18;16.50;;;4.63;;
5042;SDS011;2540;50.928;6.856;2022-08-21T05:11:44;8.33;;;3.87;;
5042;SDS011;2540;50.928;6.856;2022-08-21T05:14:10;10.40;;;5.10;;
5042;SDS011;2540;50.928;6.856;2022-08-21T05:16:36;7.33;;;4.23;;
5042;SDS011;2540;50.928;6.856;2022-08-21T05:19:01;10.10;;;4.00;;
5042;SDS011;2540;50.928;6.856;2022-08-21T05:21:26;10.23;;;4.20;;
5042;SDS011;2540;50.928;6.856;2022-08-21T05:23:52;10.43;;;4.73;;
5042;SDS011;2540;50.928;6.856;2022-08-21T05:26:17;7.70;;;4.23;;
5042;SDS011;2540;50.928;6.856;2022-08-21T05:28:42;7.53;;;4.60;;
5042;SDS011;2540;50.928;6.856;2022-08-21T05:31:07;10.20;;;4.40;;
5042;SDS011;2540;50.928;6.856;2022-08-21T05:33:33;8.63;;;4.60;;
5042;SDS011;2540;50.928;6.856;2022-08-21T05:35:58;9.07;;;4.13;;
5042;SDS011;2540;50.928;6.856;2022-08-21T05:38:23;6.40;;;4.13;;
5042;SDS011;2540;50.928;6.856;2022-08-21T05:40:49;9.50;;;4.77;;
5042;SDS011;2540;50.928;6.856;2022-08-21T05:43:14;10.13;;;3.73;;
5042;SDS011;2540;50.928;6.856;2022-08-21T05:45:40;12.17;;;5.07;;
5042;SDS011;2540;50.928;6.856;2022-08-21T05:48:09;7.73;;;4.33;;
5042;SDS011;2540;50.928;6.856;2022-08-21T05:50:35;15.80;;;4.77;;
5042;SDS011;2540;50.928;6.856;2022-08-21T05:53:02;6.73;;;4.27;;
5042;SDS011;2540;50.928;6.856;2022-08-21T05:55:27;10.63;;;4.60;;
5042;SDS011;2540;50.928;6.856;2022-08-21T05:57:52;14.67;;;4.60;;
5042;SDS011;2540;50.928;6.856;2022-08-21T06:00:18;8.30;;;4.73;;
5042;SDS011;2540;50.928;6.856;2022-08-21T06:02:43;7.87;;;4.30;;
5042;SDS011;2540;50.928;6.856;2022-08-21T06:05:08;14.07;;;5.90;;
5042;SDS011;2540;50.928;6.856;2022-08-21T06:07:33;6.13;;;3.97;;
5042;SDS011;2540;50.928;6.856;2022-08-21T06:09:59;8.80;;;5.00;;
5042;SDS011;2540;50.928;6.856;2022-08-21T06:12:24;12.70;;;4.90;;
5042;SDS011;2540;50.928;6.856;2022-08-21T06:14:50;9.33;;;4.37;;
5042;SDS011;2540;50.928;6.856;2022-08-21T06:17:16;14.37;;;5.07;;
5042;SDS011;2540;50.928;6.856;2022-08-21T06:19:42;10.77;;;4.30;;
5042;SDS011;2540;50.928;6.856;2022-08-21T06:22:07;9.17;;;4.40;;
5042;SDS011;2540;50.928;6.856;2022-08-21T06:24:32;13.13;;;5.40;;
5042;SDS011;2540;50.928;6.856;2022-08-21T06:26:58;6.23;;;3.90;;
5042;SDS011;2540;50.928;6.856;2022-08-21T06:29:23;7.70;;;3.77;;
5042;SDS011;2540;50.928;6.856;2022-08-21T06:31:49;6.97;;;3.70;;
5042;SDS011;2540;50.928;6.856;2022-08-21T06:34:14;8.80;;;4.30;;
5042;SDS011;2540;50.928;6.856;2022-08-21T06:36:40;8.80;;;3.93;;
5042;SDS011;2540;50.928;6.856;2022-08-21T06:39:05;10.13;;;3.73;;
5042;SDS011;2540;50.928;6.856;2022-08-21T06:41:31;6.80;;;4.13;;
5042;SDS011;2540;50.928;6.856;2022-08-21T06:43:56;5.87;;;3.20;;
5042;SDS011;2540;50.928;6.856;2022-08-21T06:46:22;11.20;;;4.00;;
5042;SDS011;2540;50.928;6.856;2022-08-21T06:48:47;6.43;;;3.50;;
5042;SDS011;2540;50.928;6.856;2022-08-21T06:51:12;6.17;;;3.13;;
5042;SDS011;2540;50.928;6.856;2022-08-21T06:53:38;6.30;;;2.87;;
5042;SDS011;2540;50.928;6.856;2022-08-21T06:56:03;4.27;;;2.40;;
5042;SDS011;2540;50.928;6.856;2022-08-21T06:58:29;7.20;;;3.30;;
5042;SDS011;2540;50.928;6.856;2022-08-21T07:00:54;7.90;;;2.53;;
5042;SDS011;2540;50.928;6.856;2022-08-21T07:03:24;7.63;;;2.50;;
5042;SDS011;2540;50.928;6.856;2022-08-21T07:05:50;5.30;;;2.00;;
5042;SDS011;2540;50.928;6.856;2022-08-21T07:08:15;8.90;;;2.40;;
5042;SDS011;2540;50.928;6.856;2022-08-21T07:10:41;7.90;;;2.27;;
5042;SDS011;2540;50.928;6.856;2022-08-21T07:13:06;5.50;;;2.10;;
5042;SDS011;2540;50.928;6.856;2022-08-21T07:15:31;10.40;;;2.50;;
5042;SDS011;2540;50.928;6.856;2022-08-21T07:17:57;5.23;;;2.10;;
5042;SDS011;2540;50.928;6.856;2022-08-21T07:20:23;3.37;;;1.50;;
5042;SDS011;2540;50.928;6.856;2022-08-21T07:22:48;3.87;;;1.43;;
5042;SDS011;2540;50.928;6.856;2022-08-21T07:25:13;9.20;;;2.37;;
5042;SDS011;2540;50.928;6.856;2022-08-21T07:27:38;5.97;;;1.90;;
5042;SDS011;2540;50.928;6.856;2022-08-21T07:30:04;3.47;;;1.57;;
5042;SDS011;2540;50.928;6.856;2022-08-21T07:32:29;6.73;;;1.53;;
5042;SDS011;2540;50.928;6.856;2022-08-21T07:34:55;7.33;;;1.63;;
5042;SDS011;2540;50.928;6.856;2022-08-21T07:37:20;7.80;;;1.80;;
5042;SDS011;2540;50.928;6.856;2022-08-21T07:39:45;5.43;;;1.80;;
5042;SDS011;2540;50.928;6.856;2022-08-21T07:42:13;8.60;;;1.80;;
5042;SDS011;2540;50.928;6.856;2022-08-21T07:44:39;5.13;;;2.10;;
5042;SDS011;2540;50.928;6.856;2022-08-21T07:47:04;13.27;;;2.00;;
5042;SDS011;2540;50.928;6.856;2022-08-21T07:49:29;9.57;;;3.17;;
5042;SDS011;2540;50.928;6.856;2022-08-21T07:51:54;3.67;;;1.53;;
5042;SDS011;2540;50.928;6.856;2022-08-21T07:54:20;11.80;;;2.03;;
5042;SDS011;2540;50.928;6.856;2022-08-21T07:56:45;15.73;;;2.60;;
5042;SDS011;2540;50.928;6.856;2022-08-21T07:59:10;5.23;;;1.73;;
5042;SDS011;2540;50.928;6.856;2022-08-21T08:01:36;5.37;;;1.53;;
5042;SDS011;2540;50.928;6.856;2022-08-21T08:04:01;3.37;;;1.40;;
5042;SDS011;2540;50.928;6.856;2022-08-21T08:06:26;8.07;;;2.13;;
5042;SDS011;2540;50.928;6.856;2022-08-21T08:08:51;4.97;;;1.33;;
5042;SDS011;2540;50.928;6.856;2022-08-21T08:11:17;3.80;;;1.20;;
5042;SDS011;2540;50.928;6.856;2022-08-21T08:13:43;9.77;;;1.50;;
5042;SDS011;2540;50.928;6.856;2022-08-21T08:16:09;2.97;;;1.70;;
5042;SDS011;2540;50.928;6.856;2022-08-21T08:18:34;8.23;;;1.93;;
5042;SDS011;2540;50.928;6.856;2022-08-21T08:20:59;5.33;;;1.90;;
5042;SDS011;2540;50.928;6.856;2022-08-21T08:23:24;4.60;;;1.70;;
5042;SDS011;2540;50.928;6.856;2022-08-21T08:25:50;6.50;;;2.13;;
5042;SDS011;2540;50.928;6.856;2022-08-21T08:28:15;4.10;;;1.40;;
5042;SDS011;2540;50.928;6.856;2022-08-21T08:30:40;5.90;;;1.60;;
5042;SDS011;2540;50.928;6.856;2022-08-21T08:33:07;6.50;;;1.80;;
5042;SDS011;2540;50.928;6.856;2022-08-21T08:35:32;6.90;;;1.40;;
5042;SDS011;2540;50.928;6.856;2022-08-21T08:37:57;5.47;;;1.50;;
5042;SDS011;2540;50.928;6.856;2022-08-21T08:40:41;5.00;;;1.97;;
5042;SDS011;2540;50.928;6.856;2022-08-21T08:43:09;6.70;;;1.60;;
5042;SDS011;2540;50.928;6.856;2022-08-21T08:45:36;3.33;;;1.53;;
5042;SDS011;2540;50.928;6.856;2022-08-21T08:48:03;9.60;;;1.50;;
5042;SDS011;2540;50.928;6.856;2022-08-21T08:50:38;2.60;;;1.53;;
5042;SDS011;2540;50.928;6.856;2022-08-21T08:53:06;4.63;;;1.53;;
5042;SDS011;2540;50.928;6.856;2022-08-21T08:57:57;7.53;;;1.80;;
5042;SDS011;2540;50.928;6.856;2022-08-21T09:00:23;9.80;;;1.50;;
5042;SDS011;2540;50.928;6.856;2022-08-21T09:02:49;5.33;;;1.43;;
5042;SDS011;2540;50.928;6.856;2022-08-21T09:05:27;6.70;;;1.77;;
5042;SDS011;2540;50.928;6.856;2022-08-21T09:18:59;6.27;;;1.67;;
5042;SDS011;2540;50.928;6.856;2022-08-21T09:21:31;6.80;;;2.07;;
5042;SDS011;2540;50.928;6.856;2022-08-21T09:24:02;7.37;;;2.20;;
5042;SDS011;2540;50.928;6.856;2022-08-21T09:26:47;4.47;;;1.50;;
5042;SDS011;2540;50.928;6.856;2022-08-21T09:29:17;4.17;;;1.43;;
5042;SDS011;2540;50.928;6.856;2022-08-21T09:31:45;2.70;;;1.53;;
5042;SDS011;2540;50.928;6.856;2022-08-21T09:34:10;7.00;;;1.23;;
5042;SDS011;2540;50.928;6.856;2022-08-21T09:39:02;3.43;;;1.33;;
5042;SDS011;2540;50.928;6.856;2022-08-21T09:41:29;5.57;;;1.83;;
5042;SDS011;2540;50.928;6.856;2022-08-21T09:43:56;3.57;;;1.93;;
5042;SDS011;2540;50.928;6.856;2022-08-21T09:46:22;9.53;;;2.50;;
5042;SDS011;2540;50.928;6.856;2022-08-21T09:48:51;9.27;;;1.70;;
5042;SDS011;2540;50.928;6.856;2022-08-21T09:51:22;4.30;;;1.60;;
5042;SDS011;2540;50.928;6.856;2022-08-21T09:53:50;5.50;;;2.00;;
5042;SDS011;2540;50.928;6.856;2022-08-21T09:56:18;4.20;;;1.77;;
5042;SDS011;2540;50.928;6.856;2022-08-21T09:59:11;7.27;;;2.30;;
5042;SDS011;2540;50.928;6.856;2022-08-21T10:01:41;5.30;;;1.67;;
5042;SDS011;2540;50.928;6.856;2022-08-21T10:04:08;4.90;;;1.90;;
5042;SDS011;2540;50.928;6.856;2022-08-21T10:06:33;7.80;;;1.73;;
5042;SDS011;2540;50.928;6.856;2022-08-21T10:09:13;3.80;;;1.20;;
5042;SDS011;2540;50.928;6.856;2022-08-21T10:11:40;5.97;;;1.77;;
5042;SDS011;2540;50.928;6.856;2022-08-21T10:14:17;7.80;;;1.60;;
5042;SDS011;2540;50.928;6.856;2022-08-21T10:19:15;4.83;;;1.70;;
5042;SDS011;2540;50.928;6.856;2022-08-21T10:24:11;3.67;;;1.40;;
5042;SDS011;2540;50.928;6.856;2022-08-21T10:32:07;7.87;;;2.23;;
5042;SDS011;2540;50.928;6.856;2022-08-21T10:39:46;3.07;;;1.33;;
5042;SDS011;2540;50.928;6.856;2022-08-21T10:42:16;11.30;;;2.13;;
5042;SDS011;2540;50.928;6.856;2022-08-21T10:44:49;2.90;;;1.83;;
5042;SDS011;2540;50.928;6.856;2022-08-21T10:47:23;6.30;;;1.60;;
5042;SDS011;2540;50.928;6.856;2022-08-21T10:49:54;12.80;;;1.77;;
5042;SDS011;2540;50.928;6.856;2022-08-21T10:52:37;3.47;;;1.63;;
5042;SDS011;2540;50.928;6.856;2022-08-21T10:55:08;10.70;;;2.37;;
5042;SDS011;2540;50.928;6.856;2022-08-21T11:00:07;3.43;;;1.30;;
5042;SDS011;2540;50.928;6.856;2022-08-21T11:05:14;7.00;;;1.37;;
5042;SDS011;2540;50.928;6.856;2022-08-21T11:07:45;4.43;;;1.60;;
5042;SDS011;2540;50.928;6.856;2022-08-21T11:10:21;3.63;;;1.63;;
5042;SDS011;2540;50.928;6.856;2022-08-21T11:13:08;8.33;;;1.30;;
5042;SDS011;2540;50.928;6.856;2022-08-21T11:15:41;4.43;;;1.30;;
5042;SDS011;2540;50.928;6.856;2022-08-21T11:20:42;3.80;;;1.27;;
5042;SDS011;2540;50.928;6.856;2022-08-21T11:23:17;2.67;;;1.23;;
5042;SDS011;2540;50.928;6.856;2022-08-21T11:25:45;3.70;;;1.57;;
5042;SDS011;2540;50.928;6.856;2022-08-21T11:28:21;6.13;;;1.67;;
5042;SDS011;2540;50.928;6.856;2022-08-21T11:33:29;5.90;;;1.53;;
5042;SDS011;2540;50.928;6.856;2022-08-21T11:41:03;4.03;;;1.63;;
5042;SDS011;2540;50.928;6.856;2022-08-21T11:43:40;3.50;;;1.17;;
5042;SDS011;2540;50.928;6.856;2022-08-21T11:51:01;8.00;;;1.63;;
5042;SDS011;2540;50.928;6.856;2022-08-21T11:56:25;4.47;;;1.33;;
5042;SDS011;2540;50.928;6.856;2022-08-21T11:58:52;2.50;;;1.27;;
5042;SDS011;2540;50.928;6.856;2022-08-21T12:01:21;2.70;;;1.57;;
5042;SDS011;2540;50.928;6.856;2022-08-21T12:06:37;2.90;;;1.20;;
5042;SDS011;2540;50.928;6.856;2022-08-21T12:09:05;6.80;;;1.73;;
5042;SDS011;2540;50.928;6.856;2022-08-21T12:11:31;3.30;;;1.33;;
5042;SDS011;2540;50.928;6.856;2022-08-21T12:16:28;2.43;;;1.10;;
5042;SDS011;2540;50.928;6.856;2022-08-21T12:21:47;4.67;;;1.40;;
5042;SDS011;2540;50.928;6.856;2022-08-21T12:26:52;2.53;;;1.33;;
5042;SDS011;2540;50.928;6.856;2022-08-21T12:34:16;3.87;;;1.90;;
5042;SDS011;2540;50.928;6.856;2022-08-21T12:36:44;3.20;;;1.70;;
5042;SDS011;2540;50.928;6.856;2022-08-21T12:39:14;3.17;;;1.43;;
5042;SDS011;2540;50.928;6.856;2022-08-21T12:41:49;3.60;;;1.63;;
5042;SDS011;2540;50.928;6.856;2022-08-21T12:44:17;6.93;;;1.63;;
5042;SDS011;2540;50.928;6.856;2022-08-21T12:46:51;8.07;;;1.80;;
5042;SDS011;2540;50.928;6.856;2022-08-21T12:49:27;4.73;;;1.70;;
5042;SDS011;2540;50.928;6.856;2022-08-21T12:54:42;6.10;;;1.60;;
5042;SDS011;2540;50.928;6.856;2022-08-21T12:57:08;3.00;;;1.60;;
5042;SDS011;2540;50.928;6.856;2022-08-21T12:59:41;6.40;;;2.40;;
5042;SDS011;2540;50.928;6.856;2022-08-21T13:02:12;6.73;;;1.97;;
5042;SDS011;2540;50.928;6.856;2022-08-21T13:04:40;3.90;;;1.60;;
5042;SDS011;2540;50.928;6.856;2022-08-21T13:07:07;4.47;;;1.70;;
5042;SDS011;2540;50.928;6.856;2022-08-21T13:09:35;4.33;;;1.40;;
5042;SDS011;2540;50.928;6.856;2022-08-21T13:12:01;5.93;;;2.10;;
5042;SDS011;2540;50.928;6.856;2022-08-21T13:14:42;4.87;;;1.57;;
5042;SDS011;2540;50.928;6.856;2022-08-21T13:17:09;3.80;;;1.63;;
5042;SDS011;2540;50.928;6.856;2022-08-21T13:19:35;4.67;;;1.63;;
5042;SDS011;2540;50.928;6.856;2022-08-21T13:22:00;4.70;;;1.43;;
5042;SDS011;2540;50.928;6.856;2022-08-21T13:24:30;4.13;;;2.20;;
5042;SDS011;2540;50.928;6.856;2022-08-21T13:26:56;3.20;;;1.40;;
5042;SDS011;2540;50.928;6.856;2022-08-21T13:29:23;3.10;;;1.30;;
5042;SDS011;2540;50.928;6.856;2022-08-21T13:31:52;5.43;;;1.73;;
5042;SDS011;2540;50.928;6.856;2022-08-21T13:34:19;7.13;;;1.80;;
5042;SDS011;2540;50.928;6.856;2022-08-21T13:36:45;4.30;;;1.40;;
5042;SDS011;2540;50.928;6.856;2022-08-21T13:39:12;4.30;;;1.53;;
5042;SDS011;2540;50.928;6.856;2022-08-21T13:41:40;4.27;;;1.70;;
5042;SDS011;2540;50.928;6.856;2022-08-21T13:46:41;4.17;;;1.67;;
5042;SDS011;2540;50.928;6.856;2022-08-21T13:49:06;5.87;;;1.83;;
5042;SDS011;2540;50.928;6.856;2022-08-21T13:51:32;6.03;;;1.70;;
5042;SDS011;2540;50.928;6.856;2022-08-21T13:53:58;4.20;;;1.83;;
5042;SDS011;2540;50.928;6.856;2022-08-21T13:56:31;5.33;;;1.80;;
5042;SDS011;2540;50.928;6.856;2022-08-21T13:58:58;4.40;;;1.53;;
5042;SDS011;2540;50.928;6.856;2022-08-21T14:03:52;6.90;;;1.70;;
5042;SDS011;2540;50.928;6.856;2022-08-21T14:06:20;10.83;;;1.80;;
5042;SDS011;2540;50.928;6.856;2022-08-21T14:08:50;2.60;;;1.43;;
5042;SDS011;2540;50.928;6.856;2022-08-21T14:11:16;7.00;;;1.70;;
5042;SDS011;2540;50.928;6.856;2022-08-21T14:14:03;2.13;;;1.23;;
5042;SDS011;2540;50.928;6.856;2022-08-21T14:16:28;2.70;;;1.33;;
5042;SDS011;2540;50.928;6.856;2022-08-21T14:21:32;3.83;;;1.60;;
5042;SDS011;2540;50.928;6.856;2022-08-21T14:23:59;4.83;;;1.37;;
5042;SDS011;2540;50.928;6.856;2022-08-21T14:26:24;5.40;;;1.47;;
5042;SDS011;2540;50.928;6.856;2022-08-21T14:28:49;2.20;;;1.23;;
5042;SDS011;2540;50.928;6.856;2022-08-21T14:31:18;13.17;;;1.20;;
5042;SDS011;2540;50.928;6.856;2022-08-21T14:33:43;2.90;;;1.30;;
5042;SDS011;2540;50.928;6.856;2022-08-21T14:36:09;3.47;;;1.50;;
5042;SDS011;2540;50.928;6.856;2022-08-21T14:38:35;4.80;;;1.33;;
5042;SDS011;2540;50.928;6.856;2022-08-21T14:41:08;2.77;;;1.53;;
5042;SDS011;2540;50.928;6.856;2022-08-21T14:43:34;3.23;;;1.53;;
5042;SDS011;2540;50.928;6.856;2022-08-21T14:45:59;3.70;;;1.20;;
5042;SDS011;2540;50.928;6.856;2022-08-21T14:48:25;4.87;;;1.40;;
5042;SDS011;2540;50.928;6.856;2022-08-21T14:50:50;2.00;;;1.30;;
5042;SDS011;2540;50.928;6.856;2022-08-21T14:53:16;5.10;;;1.50;;
5042;SDS011;2540;50.928;6.856;2022-08-21T14:55:42;2.53;;;1.10;;
5042;SDS011;2540;50.928;6.856;2022-08-21T14:58:25;3.70;;;1.33;;
5042;SDS011;2540;50.928;6.856;2022-08-21T15:00:51;3.37;;;1.47;;
5042;SDS011;2540;50.928;6.856;2022-08-21T15:03:17;4.00;;;1.27;;
5042;SDS011;2540;50.928;6.856;2022-08-21T15:05:42;3.50;;;1.03;;
5042;SDS011;2540;50.928;6.856;2022-08-21T15:08:07;11.47;;;2.70;;
5042;SDS011;2540;50.928;6.856;2022-08-21T15:10:33;4.23;;;1.17;;
5042;SDS011;2540;50.928;6.856;2022-08-21T15:12:59;2.70;;;1.17;;
5042;SDS011;2540;50.928;6.856;2022-08-21T15:15:24;3.10;;;1.20;;
5042;SDS011;2540;50.928;6.856;2022-08-21T15:17:49;4.67;;;1.37;;
5042;SDS011;2540;50.928;6.856;2022-08-21T15:20:14;3.20;;;1.40;;
5042;SDS011;2540;50.928;6.856;2022-08-21T15:22:40;7.13;;;1.53;;
5042;SDS011;2540;50.928;6.856;2022-08-21T15:25:05;6.50;;;1.27;;
5042;SDS011;2540;50.928;6.856;2022-08-21T15:27:30;5.77;;;1.23;;
5042;SDS011;2540;50.928;6.856;2022-08-21T15:29:56;6.57;;;1.57;;
5042;SDS011;2540;50.928;6.856;2022-08-21T15:32:25;5.17;;;1.30;;
5042;SDS011;2540;50.928;6.856;2022-08-21T15:34:52;4.70;;;1.10;;
5042;SDS011;2540;50.928;6.856;2022-08-21T15:37:17;9.77;;;1.20;;
5042;SDS011;2540;50.928;6.856;2022-08-21T15:39:43;3.93;;;1.30;;
5042;SDS011;2540;50.928;6.856;2022-08-21T15:42:09;2.47;;;1.30;;
5042;SDS011;2540;50.928;6.856;2022-08-21T15:44:34;3.33;;;1.37;;
5042;SDS011;2540;50.928;6.856;2022-08-21T15:46:59;2.07;;;1.10;;
5042;SDS011;2540;50.928;6.856;2022-08-21T15:49:25;1.90;;;0.90;;
5042;SDS011;2540;50.928;6.856;2022-08-21T15:51:50;4.00;;;1.37;;
5042;SDS011;2540;50.928;6.856;2022-08-21T15:54:15;2.37;;;0.90;;
5042;SDS011;2540;50.928;6.856;2022-08-21T15:56:40;4.90;;;1.70;;
5042;SDS011;2540;50.928;6.856;2022-08-21T15:59:08;2.47;;;1.30;;
5042;SDS011;2540;50.928;6.856;2022-08-21T16:01:37;4.50;;;1.40;;
5042;SDS011;2540;50.928;6.856;2022-08-21T16:04:03;4.17;;;1.20;;
5042;SDS011;2540;50.928;6.856;2022-08-21T16:06:29;2.50;;;1.27;;
5042;SDS011;2540;50.928;6.856;2022-08-21T16:08:54;4.13;;;1.20;;
5042;SDS011;2540;50.928;6.856;2022-08-21T16:11:20;1.90;;;1.10;;
5042;SDS011;2540;50.928;6.856;2022-08-21T16:13:45;4.70;;;1.47;;
5042;SDS011;2540;50.928;6.856;2022-08-21T16:16:11;9.40;;;2.50;;
5042;SDS011;2540;50.928;6.856;2022-08-21T16:18:37;2.50;;;1.20;;
5042;SDS011;2540;50.928;6.856;2022-08-21T16:21:03;1.50;;;1.17;;
5042;SDS011;2540;50.928;6.856;2022-08-21T16:23:28;3.93;;;1.60;;
5042;SDS011;2540;50.928;6.856;2022-08-21T16:25:53;2.00;;;1.30;;
5042;SDS011;2540;50.928;6.856;2022-08-21T16:28:18;3.33;;;1.53;;
5042;SDS011;2540;50.928;6.856;2022-08-21T16:30:45;2.90;;;1.50;;
5042;SDS011;2540;50.928;6.856;2022-08-21T16:33:14;2.73;;;1.33;;